Jalhay, Belgium
Current Conditions -  °F | °C
As of 6:25 PM on Friday 21 Nov 2014 (Local Time) from EBLB Reporting Station
Broken Clouds Broken Clouds  
Wind Chill: 39°   Ceiling: 1000
Heat Index: 43°   Visibility: 6mi
Dew Point: 39°   Wind: 6mph
Humidity: 87%   Direction: 170°S
Pressure: 30.09"   Gusts: NA
Location:  50.56°N, 5.97°E
Report Text: EBLB 211725Z AUTO 17005KT 9999 SCT008/// BKN010/// 06/04 Q1019 GRN
Loading
Personal Weather Stations






























Interactive Weather Map New forecast layout! Learn more

10-Day Weather Forecast

Advertisements
Track Severe Weather on mobile